createdAt,value
2018-12-26T00:10:36.631Z,94370.66
2018-12-26T00:26:09.429Z,94378.98
2018-12-26T00:41:42.434Z,94396.18
2018-12-26T00:57:15.956Z,94383.19
2018-12-26T01:12:48.797Z,94364.50
2018-12-26T01:28:21.723Z,94356.27
2018-12-26T01:43:54.965Z,94342.18
2018-12-26T01:59:27.976Z,94330.52
2018-12-26T02:15:00.851Z,94328.54
2018-12-26T02:30:34.072Z,94330.58
2018-12-26T02:46:07.263Z,94319.41
2018-12-26T03:01:40.198Z,94325.11
2018-12-26T03:17:13.341Z,94334.48
2018-12-26T03:32:46.626Z,94336.86
2018-12-26T03:48:19.802Z,94345.11
2018-12-26T04:03:53.181Z,94376.16
2018-12-26T04:19:26.580Z,94380.19
2018-12-26T04:34:59.649Z,94381.44
2018-12-26T04:50:32.583Z,94381.69
2018-12-26T05:06:05.557Z,94387.52
2018-12-26T05:21:38.733Z,94404.48
2018-12-26T05:37:12.180Z,94420.85
2018-12-26T05:52:45.241Z,94426.93
2018-12-26T06:08:18.330Z,94456.81
2018-12-26T06:23:51.172Z,94480.13
2018-12-26T06:39:24.358Z,94480.23
2018-12-26T06:54:57.821Z,94470.48
2018-12-26T07:10:31.217Z,94488.28
2018-12-26T07:26:04.457Z,94498.02
2018-12-26T07:41:38.274Z,94506.15
2018-12-26T07:57:11.073Z,94511.19
2018-12-26T08:12:44.502Z,94519.32
2018-12-26T08:28:26.364Z,94500.84
2018-12-26T08:43:53.572Z,94491.80
2018-12-26T08:59:26.838Z,94500.23
2018-12-26T09:15:00.156Z,94498.06
2018-12-26T09:30:33.750Z,94473.41
2018-12-26T09:46:07.050Z,94462.88
2018-12-26T10:01:39.953Z,94430.03
2018-12-26T10:17:12.994Z,94402.59
2018-12-26T10:32:46.301Z,94377.92
2018-12-26T10:48:19.349Z,94362.61
2018-12-26T11:03:52.200Z,94376.54
2018-12-26T11:19:25.473Z,94355.19
2018-12-26T11:34:58.228Z,94334.51
2018-12-26T11:50:31.649Z,94336.88
2018-12-26T12:06:05.321Z,94342.42
2018-12-26T12:21:38.136Z,94353.08
2018-12-26T12:37:11.208Z,94347.20
2018-12-26T12:52:44.337Z,94319.69
2018-12-26T13:08:17.507Z,94341.76
2018-12-26T13:23:50.400Z,94346.27
2018-12-26T13:39:23.367Z,94332.34
2018-12-26T13:54:56.571Z,94324.83
2018-12-26T14:10:30.481Z,94328.53
2018-12-26T14:26:03.396Z,94318.58
2018-12-26T14:41:36.598Z,94305.28
2018-12-26T14:57:09.601Z,94292.05
2018-12-26T15:12:42.481Z,94275.98
2018-12-26T15:28:15.655Z,94271.45
2018-12-26T15:43:48.643Z,94255.39
2018-12-26T15:59:22.008Z,94235.94
2018-12-26T16:14:55.467Z,94218.22
2018-12-26T16:30:29.154Z,94225.70
2018-12-26T16:46:01.960Z,94239.73
2018-12-26T17:01:35.184Z,94232.80
2018-12-26T17:17:08.875Z,94222.56
2018-12-26T17:32:41.877Z,94213.48
2018-12-26T17:48:14.891Z,94221.33
2018-12-26T18:03:47.669Z,94230.25
2018-12-26T18:19:21.013Z,94235.95
2018-12-26T18:34:54.143Z,94230.08
2018-12-26T18:50:27.348Z,94222.31
2018-12-26T19:06:00.252Z,94212.80
2018-12-26T19:21:33.417Z,94206.22
2018-12-26T19:37:06.175Z,94196.75
2018-12-26T19:52:39.758Z,94197.23
2018-12-26T20:08:12.320Z,94191.84
2018-12-26T20:23:45.606Z,94196.34
2018-12-26T20:39:18.488Z,94193.48
2018-12-26T20:54:51.587Z,94193.52
2018-12-26T21:10:24.435Z,94192.69
2018-12-26T21:25:58.479Z,94197.66
2018-12-26T21:41:31.665Z,94196.83
2018-12-26T21:57:04.597Z,94208.37
2018-12-26T22:12:37.558Z,94198.50
2018-12-26T22:28:10.531Z,94189.42
2018-12-26T22:43:43.846Z,94195.27
2018-12-26T22:59:16.887Z,94189.93
2018-12-26T23:14:50.015Z,94180.89
2018-12-26T23:30:22.902Z,94187.86
2018-12-26T23:45:55.943Z,94173.44
